Clyde River, Canada
Current Conditions -  °F | °C
As of 8:00 PM on Sunday 21 Dec 2014 (Local Time) from CYCY Reporting Station
Broken Clouds Broken Clouds  
Wind Chill: -17°   Ceiling: 13000
Heat Index: -17°   Visibility: 9mi
Dew Point: -26°   Wind: 3mph
Humidity: 64%   Direction: 280°W
Pressure: 29.99"   Gusts: NA
Location:  70.45°N, 68.57°W
Report Text: CYCY 220100Z AUTO 28003KT 9SM FEW090 BKN130 M27/M32 A2999 RMK SLP161
Loading
Personal Weather Stations






























Interactive Weather Map New forecast layout! Learn more

10-Day Weather Forecast

Advertisements
Track Severe Weather on mobile